Back to top

Casper, WY weather

Natrona County International Airport, Casper, WY: 11/13/2019 16:53
Visibility10 statute milessun with broken clouds
View 7-Day Forecast
Area Summary
Sky/CloudsBroken at 8500ft
Weather [last 24 hours]None [rain began 18:11 ended 18:13 ]
Pressure30.05 in.Hg (1018 hPa)
3-hour Pressure Tendency0 in.Hg (0 hPa) Decreasing or steady, then increasing; or increasing then increasing more rapidly
Dew Point27 °F (-2.8 °C)
Relative Humidity59.5 %
Last 24-Hour Precip.Trace
Reading TimePrecipitation
6-hr ending 11/12@22:53Trace
Temperature39.9 °F (4.4 °C)red thermometer
Reading TimeMinimum to Maximum Temperature
6-hr ending 11/13@16:5339.9 °F to 46.9 °F (4.4 °C to 8.3 °C)
6-hr ending 11/13@10:5327 °F to 39.9 °F (-2.8 °C to 4.4 °C)
6-hr ending 11/13@04:5333.1 °F to 45 °F (0.6 °C to 7.2 °C)
6-hr ending 11/12@22:5343 °F to 46.9 °F (6.1 °C to 8.3 °C)
24-hr ending 11/12@23:5323 °F to 48.9 °F (-5 °C to 9.4 °C)
Wind0 MPH (0 KT) green arrow pointing at 0 degrees
Wind FromNorth (000 Degrees)
Rolling 24-hr Peak Wind36.8 MPH (32 KT) on 11/12@19:28
Rolling 24-hr Peak Wind FromSouthwest (220 Degrees)
Twilight Begins06:24Sunshine Yesterday
Sunrise06:55N/A
Sunset16:45
Twilight Ends17:16
METARKCPR 132353Z 00000KT 10SM BKN085 04/M03 A3005 RMK AO2 SLP183 T00441028 10083 20044 53000
Tags: